sensor_id;sensor_type;location;lat;lon;timestamp;P1;durP1;ratioP1;P2;durP2;ratioP2
70924;SDS011;58577;52.410;13.242;2022-08-05T00:02:10;8.57;;;6.38;;
70924;SDS011;58577;52.410;13.242;2022-08-05T00:04:55;9.35;;;6.50;;
70924;SDS011;58577;52.410;13.242;2022-08-05T00:07:41;8.65;;;6.20;;
70924;SDS011;58577;52.410;13.242;2022-08-05T00:10:27;7.75;;;6.03;;
70924;SDS011;58577;52.410;13.242;2022-08-05T00:13:13;8.15;;;6.20;;
70924;SDS011;58577;52.410;13.242;2022-08-05T00:15:59;8.65;;;6.55;;
70924;SDS011;58577;52.410;13.242;2022-08-05T00:18:45;9.48;;;6.20;;
70924;SDS011;58577;52.410;13.242;2022-08-05T00:21:33;7.90;;;5.97;;
70924;SDS011;58577;52.410;13.242;2022-08-05T00:24:19;8.27;;;6.10;;
70924;SDS011;58577;52.410;13.242;2022-08-05T00:27:05;9.77;;;6.50;;
70924;SDS011;58577;52.410;13.242;2022-08-05T00:29:50;8.95;;;6.53;;
70924;SDS011;58577;52.410;13.242;2022-08-05T00:32:36;8.70;;;6.55;;
70924;SDS011;58577;52.410;13.242;2022-08-05T00:35:22;8.45;;;6.55;;
70924;SDS011;58577;52.410;13.242;2022-08-05T00:38:08;8.65;;;6.10;;
70924;SDS011;58577;52.410;13.242;2022-08-05T00:40:55;7.18;;;6.28;;
70924;SDS011;58577;52.410;13.242;2022-08-05T00:43:43;9.35;;;6.43;;
70924;SDS011;58577;52.410;13.242;2022-08-05T00:46:30;8.07;;;6.82;;
70924;SDS011;58577;52.410;13.242;2022-08-05T00:49:16;11.18;;;6.47;;
70924;SDS011;58577;52.410;13.242;2022-08-05T00:52:04;9.85;;;6.47;;
70924;SDS011;58577;52.410;13.242;2022-08-05T00:54:50;8.45;;;6.47;;
70924;SDS011;58577;52.410;13.242;2022-08-05T00:57:36;11.00;;;6.57;;
70924;SDS011;58577;52.410;13.242;2022-08-05T01:00:22;9.18;;;6.53;;
70924;SDS011;58577;52.410;13.242;2022-08-05T01:03:08;9.27;;;6.60;;
70924;SDS011;58577;52.410;13.242;2022-08-05T01:05:55;11.80;;;6.85;;
70924;SDS011;58577;52.410;13.242;2022-08-05T01:08:41;8.73;;;6.35;;
70924;SDS011;58577;52.410;13.242;2022-08-05T01:11:29;10.75;;;6.40;;
70924;SDS011;58577;52.410;13.242;2022-08-05T01:17:45;9.90;;;6.55;;
70924;SDS011;58577;52.410;13.242;2022-08-05T01:26:55;11.88;;;6.97;;
70924;SDS011;58577;52.410;13.242;2022-08-05T01:29:47;11.00;;;6.88;;
70924;SDS011;58577;52.410;13.242;2022-08-05T01:32:37;9.63;;;6.80;;
70924;SDS011;58577;52.410;13.242;2022-08-05T01:35:28;12.32;;;6.80;;
70924;SDS011;58577;52.410;13.242;2022-08-05T01:38:16;9.55;;;6.80;;
70924;SDS011;58577;52.410;13.242;2022-08-05T01:41:04;11.05;;;6.95;;
70924;SDS011;58577;52.410;13.242;2022-08-05T01:43:52;11.95;;;6.57;;
70924;SDS011;58577;52.410;13.242;2022-08-05T01:46:39;10.23;;;6.93;;
70924;SDS011;58577;52.410;13.242;2022-08-05T01:49:27;9.88;;;7.20;;
70924;SDS011;58577;52.410;13.242;2022-08-05T01:52:14;11.82;;;7.85;;
70924;SDS011;58577;52.410;13.242;2022-08-05T01:55:04;10.02;;;7.68;;
70924;SDS011;58577;52.410;13.242;2022-08-05T01:57:53;10.93;;;7.13;;
70924;SDS011;58577;52.410;13.242;2022-08-05T02:00:44;11.80;;;7.90;;
70924;SDS011;58577;52.410;13.242;2022-08-05T02:03:36;12.52;;;7.20;;
70924;SDS011;58577;52.410;13.242;2022-08-05T02:06:25;9.45;;;7.38;;
70924;SDS011;58577;52.410;13.242;2022-08-05T02:09:11;12.93;;;7.43;;
70924;SDS011;58577;52.410;13.242;2022-08-05T02:18:41;15.43;;;8.48;;
70924;SDS011;58577;52.410;13.242;2022-08-05T02:21:35;14.43;;;8.93;;
70924;SDS011;58577;52.410;13.242;2022-08-05T02:24:26;18.17;;;10.75;;
70924;SDS011;58577;52.410;13.242;2022-08-05T02:27:17;17.40;;;10.75;;
70924;SDS011;58577;52.410;13.242;2022-08-05T02:30:07;15.98;;;10.18;;
70924;SDS011;58577;52.410;13.242;2022-08-05T02:32:54;21.30;;;12.63;;
70924;SDS011;58577;52.410;13.242;2022-08-05T02:35:44;22.20;;;11.88;;
70924;SDS011;58577;52.410;13.242;2022-08-05T02:38:31;21.83;;;11.50;;
70924;SDS011;58577;52.410;13.242;2022-08-05T02:41:19;19.73;;;12.30;;
70924;SDS011;58577;52.410;13.242;2022-08-05T02:44:07;18.42;;;11.65;;
70924;SDS011;58577;52.410;13.242;2022-08-05T02:46:55;22.48;;;12.35;;
70924;SDS011;58577;52.410;13.242;2022-08-05T02:49:42;20.75;;;12.10;;
70924;SDS011;58577;52.410;13.242;2022-08-05T02:52:29;19.88;;;11.57;;
70924;SDS011;58577;52.410;13.242;2022-08-05T02:55:17;24.65;;;12.95;;
70924;SDS011;58577;52.410;13.242;2022-08-05T02:58:03;20.90;;;13.07;;
70924;SDS011;58577;52.410;13.242;2022-08-05T03:00:49;22.85;;;13.95;;
70924;SDS011;58577;52.410;13.242;2022-08-05T03:03:38;24.65;;;13.23;;
70924;SDS011;58577;52.410;13.242;2022-08-05T03:06:26;26.15;;;13.45;;
70924;SDS011;58577;52.410;13.242;2022-08-05T03:09:12;20.05;;;13.20;;
70924;SDS011;58577;52.410;13.242;2022-08-05T03:11:59;19.02;;;11.18;;
70924;SDS011;58577;52.410;13.242;2022-08-05T03:15:04;19.35;;;10.68;;
70924;SDS011;58577;52.410;13.242;2022-08-05T03:17:52;17.33;;;10.65;;
70924;SDS011;58577;52.410;13.242;2022-08-05T03:20:39;17.27;;;9.75;;
70924;SDS011;58577;52.410;13.242;2022-08-05T03:23:26;15.82;;;8.63;;
70924;SDS011;58577;52.410;13.242;2022-08-05T03:26:12;15.05;;;8.50;;
70924;SDS011;58577;52.410;13.242;2022-08-05T03:28:58;14.68;;;8.10;;
70924;SDS011;58577;52.410;13.242;2022-08-05T03:31:44;11.65;;;7.70;;
70924;SDS011;58577;52.410;13.242;2022-08-05T03:34:31;11.88;;;7.45;;
70924;SDS011;58577;52.410;13.242;2022-08-05T03:37:17;13.55;;;7.25;;
70924;SDS011;58577;52.410;13.242;2022-08-05T03:40:05;11.63;;;7.38;;
70924;SDS011;58577;52.410;13.242;2022-08-05T03:42:53;11.35;;;7.30;;
70924;SDS011;58577;52.410;13.242;2022-08-05T03:45:39;12.57;;;7.22;;
70924;SDS011;58577;52.410;13.242;2022-08-05T03:48:25;11.45;;;7.20;;
70924;SDS011;58577;52.410;13.242;2022-08-05T03:51:13;9.43;;;6.50;;
70924;SDS011;58577;52.410;13.242;2022-08-05T03:56:54;12.10;;;7.10;;
70924;SDS011;58577;52.410;13.242;2022-08-05T03:59:42;10.02;;;6.63;;
70924;SDS011;58577;52.410;13.242;2022-08-05T04:02:33;9.43;;;7.00;;
70924;SDS011;58577;52.410;13.242;2022-08-05T04:05:21;11.70;;;7.47;;
70924;SDS011;58577;52.410;13.242;2022-08-05T04:08:08;9.10;;;6.40;;
70924;SDS011;58577;52.410;13.242;2022-08-05T04:10:55;12.73;;;7.20;;
70924;SDS011;58577;52.410;13.242;2022-08-05T04:13:43;11.25;;;6.72;;
70924;SDS011;58577;52.410;13.242;2022-08-05T04:16:30;11.23;;;7.03;;
70924;SDS011;58577;52.410;13.242;2022-08-05T04:19:17;9.45;;;6.30;;
70924;SDS011;58577;52.410;13.242;2022-08-05T04:22:02;13.45;;;7.47;;
70924;SDS011;58577;52.410;13.242;2022-08-05T04:24:48;9.73;;;6.55;;
70924;SDS011;58577;52.410;13.242;2022-08-05T04:27:34;10.00;;;7.10;;
70924;SDS011;58577;52.410;13.242;2022-08-05T04:30:20;13.32;;;7.60;;
70924;SDS011;58577;52.410;13.242;2022-08-05T04:33:06;10.82;;;6.75;;
70924;SDS011;58577;52.410;13.242;2022-08-05T04:35:52;10.70;;;6.65;;
70924;SDS011;58577;52.410;13.242;2022-08-05T04:38:38;9.57;;;7.07;;
70924;SDS011;58577;52.410;13.242;2022-08-05T04:41:24;10.10;;;7.45;;
70924;SDS011;58577;52.410;13.242;2022-08-05T04:44:10;10.90;;;7.03;;
70924;SDS011;58577;52.410;13.242;2022-08-05T04:46:56;15.68;;;10.27;;
70924;SDS011;58577;52.410;13.242;2022-08-05T04:49:43;10.70;;;7.00;;
70924;SDS011;58577;52.410;13.242;2022-08-05T04:52:28;11.25;;;7.13;;
70924;SDS011;58577;52.410;13.242;2022-08-05T04:55:14;10.32;;;6.28;;
70924;SDS011;58577;52.410;13.242;2022-08-05T04:58:00;11.32;;;7.07;;
70924;SDS011;58577;52.410;13.242;2022-08-05T05:00:46;8.88;;;6.30;;
70924;SDS011;58577;52.410;13.242;2022-08-05T05:03:32;13.77;;;8.85;;
70924;SDS011;58577;52.410;13.242;2022-08-05T05:06:18;11.63;;;7.05;;
70924;SDS011;58577;52.410;13.242;2022-08-05T05:09:04;11.23;;;7.80;;
70924;SDS011;58577;52.410;13.242;2022-08-05T05:11:50;27.67;;;20.05;;
70924;SDS011;58577;52.410;13.242;2022-08-05T05:14:35;10.88;;;7.15;;
70924;SDS011;58577;52.410;13.242;2022-08-05T05:17:21;9.93;;;6.60;;
70924;SDS011;58577;52.410;13.242;2022-08-05T05:20:07;9.80;;;6.90;;
70924;SDS011;58577;52.410;13.242;2022-08-05T05:22:54;7.32;;;6.53;;
70924;SDS011;58577;52.410;13.242;2022-08-05T05:25:44;9.10;;;6.32;;
70924;SDS011;58577;52.410;13.242;2022-08-05T05:28:30;14.55;;;7.13;;
70924;SDS011;58577;52.410;13.242;2022-08-05T05:31:16;14.05;;;7.72;;
70924;SDS011;58577;52.410;13.242;2022-08-05T05:34:01;12.60;;;7.93;;
70924;SDS011;58577;52.410;13.242;2022-08-05T05:36:47;12.27;;;6.80;;
70924;SDS011;58577;52.410;13.242;2022-08-05T05:39:33;13.10;;;7.60;;
70924;SDS011;58577;52.410;13.242;2022-08-05T05:42:19;11.73;;;7.10;;
70924;SDS011;58577;52.410;13.242;2022-08-05T05:45:05;10.98;;;6.90;;
70924;SDS011;58577;52.410;13.242;2022-08-05T05:47:52;9.63;;;6.40;;
70924;SDS011;58577;52.410;13.242;2022-08-05T05:50:38;10.35;;;6.80;;
70924;SDS011;58577;52.410;13.242;2022-08-05T05:53:25;10.18;;;6.60;;
70924;SDS011;58577;52.410;13.242;2022-08-05T05:56:11;9.25;;;7.07;;
70924;SDS011;58577;52.410;13.242;2022-08-05T05:58:56;9.98;;;6.10;;
70924;SDS011;58577;52.410;13.242;2022-08-05T06:01:42;8.23;;;6.65;;
70924;SDS011;58577;52.410;13.242;2022-08-05T06:04:28;10.52;;;7.13;;
70924;SDS011;58577;52.410;13.242;2022-08-05T06:07:14;8.77;;;6.38;;
70924;SDS011;58577;52.410;13.242;2022-08-05T06:10:00;10.82;;;6.65;;
70924;SDS011;58577;52.410;13.242;2022-08-05T06:12:47;8.15;;;6.10;;
70924;SDS011;58577;52.410;13.242;2022-08-05T06:15:32;9.57;;;6.15;;
70924;SDS011;58577;52.410;13.242;2022-08-05T06:18:18;6.78;;;5.60;;
70924;SDS011;58577;52.410;13.242;2022-08-05T06:21:04;7.47;;;5.78;;
70924;SDS011;58577;52.410;13.242;2022-08-05T06:23:50;10.40;;;6.55;;
70924;SDS011;58577;52.410;13.242;2022-08-05T06:26:36;9.93;;;5.68;;
70924;SDS011;58577;52.410;13.242;2022-08-05T06:29:22;8.55;;;4.97;;
70924;SDS011;58577;52.410;13.242;2022-08-05T06:32:08;8.65;;;4.70;;
70924;SDS011;58577;52.410;13.242;2022-08-05T06:34:55;9.63;;;4.82;;
70924;SDS011;58577;52.410;13.242;2022-08-05T06:37:42;6.43;;;4.25;;
70924;SDS011;58577;52.410;13.242;2022-08-05T06:40:28;6.85;;;4.30;;
70924;SDS011;58577;52.410;13.242;2022-08-05T06:43:14;7.93;;;4.65;;
70924;SDS011;58577;52.410;13.242;2022-08-05T06:46:00;9.18;;;4.43;;
70924;SDS011;58577;52.410;13.242;2022-08-05T06:48:46;8.32;;;4.20;;
70924;SDS011;58577;52.410;13.242;2022-08-05T06:51:31;6.80;;;4.38;;
70924;SDS011;58577;52.410;13.242;2022-08-05T06:54:17;6.53;;;4.38;;
70924;SDS011;58577;52.410;13.242;2022-08-05T06:57:03;8.65;;;4.07;;
70924;SDS011;58577;52.410;13.242;2022-08-05T06:59:49;6.85;;;4.20;;
70924;SDS011;58577;52.410;13.242;2022-08-05T07:02:41;16.92;;;9.77;;
70924;SDS011;58577;52.410;13.242;2022-08-05T07:05:31;9.13;;;6.07;;
70924;SDS011;58577;52.410;13.242;2022-08-05T07:08:17;9.30;;;5.32;;
70924;SDS011;58577;52.410;13.242;2022-08-05T07:11:03;6.07;;;4.30;;
70924;SDS011;58577;52.410;13.242;2022-08-05T07:13:49;7.70;;;4.25;;
70924;SDS011;58577;52.410;13.242;2022-08-05T07:16:53;6.30;;;4.40;;
70924;SDS011;58577;52.410;13.242;2022-08-05T07:19:44;6.63;;;4.28;;
70924;SDS011;58577;52.410;13.242;2022-08-05T07:22:30;6.95;;;4.30;;
70924;SDS011;58577;52.410;13.242;2022-08-05T07:25:16;7.85;;;4.80;;
70924;SDS011;58577;52.410;13.242;2022-08-05T07:28:02;9.98;;;5.22;;
70924;SDS011;58577;52.410;13.242;2022-08-05T07:30:48;15.02;;;7.80;;
70924;SDS011;58577;52.410;13.242;2022-08-05T07:33:34;6.32;;;4.45;;
70924;SDS011;58577;52.410;13.242;2022-08-05T07:36:20;7.93;;;5.57;;
70924;SDS011;58577;52.410;13.242;2022-08-05T07:39:06;9.90;;;5.88;;
70924;SDS011;58577;52.410;13.242;2022-08-05T07:41:53;11.57;;;6.57;;
70924;SDS011;58577;52.410;13.242;2022-08-05T07:44:39;7.45;;;4.57;;
70924;SDS011;58577;52.410;13.242;2022-08-05T07:47:24;7.50;;;4.80;;
70924;SDS011;58577;52.410;13.242;2022-08-05T07:50:10;9.20;;;4.90;;
70924;SDS011;58577;52.410;13.242;2022-08-05T07:52:56;15.43;;;9.20;;
70924;SDS011;58577;52.410;13.242;2022-08-05T07:55:42;11.20;;;5.53;;
70924;SDS011;58577;52.410;13.242;2022-08-05T07:58:28;10.52;;;6.28;;
70924;SDS011;58577;52.410;13.242;2022-08-05T08:01:14;14.48;;;7.35;;
70924;SDS011;58577;52.410;13.242;2022-08-05T08:04:00;18.85;;;9.15;;
70924;SDS011;58577;52.410;13.242;2022-08-05T08:06:45;16.45;;;8.25;;
70924;SDS011;58577;52.410;13.242;2022-08-05T08:09:31;16.85;;;8.95;;
70924;SDS011;58577;52.410;13.242;2022-08-05T08:12:17;17.70;;;7.97;;
70924;SDS011;58577;52.410;13.242;2022-08-05T08:15:04;10.43;;;6.40;;
70924;SDS011;58577;52.410;13.242;2022-08-05T08:17:52;8.02;;;5.50;;
70924;SDS011;58577;52.410;13.242;2022-08-05T08:20:38;9.27;;;5.60;;
70924;SDS011;58577;52.410;13.242;2022-08-05T08:23:24;8.80;;;5.47;;
70924;SDS011;58577;52.410;13.242;2022-08-05T08:26:10;8.13;;;5.30;;
70924;SDS011;58577;52.410;13.242;2022-08-05T08:28:58;12.60;;;5.22;;
70924;SDS011;58577;52.410;13.242;2022-08-05T08:31:44;9.95;;;5.75;;
70924;SDS011;58577;52.410;13.242;2022-08-05T08:34:30;10.02;;;5.70;;
70924;SDS011;58577;52.410;13.242;2022-08-05T08:37:16;10.75;;;5.70;;
70924;SDS011;58577;52.410;13.242;2022-08-05T08:40:02;10.45;;;5.85;;
70924;SDS011;58577;52.410;13.242;2022-08-05T08:42:49;9.38;;;5.32;;
70924;SDS011;58577;52.410;13.242;2022-08-05T08:45:37;9.98;;;5.85;;
70924;SDS011;58577;52.410;13.242;2022-08-05T08:48:23;10.00;;;5.63;;
70924;SDS011;58577;52.410;13.242;2022-08-05T08:51:11;11.05;;;6.82;;
70924;SDS011;58577;52.410;13.242;2022-08-05T08:53:58;17.33;;;10.50;;
70924;SDS011;58577;52.410;13.242;2022-08-05T08:56:44;11.57;;;7.05;;
70924;SDS011;58577;52.410;13.242;2022-08-05T08:59:30;14.93;;;8.70;;
70924;SDS011;58577;52.410;13.242;2022-08-05T09:02:17;14.55;;;7.63;;
70924;SDS011;58577;52.410;13.242;2022-08-05T09:05:04;12.30;;;6.93;;
70924;SDS011;58577;52.410;13.242;2022-08-05T09:07:50;11.93;;;6.57;;
70924;SDS011;58577;52.410;13.242;2022-08-05T09:10:39;9.63;;;5.45;;
70924;SDS011;58577;52.410;13.242;2022-08-05T09:13:28;15.05;;;7.85;;
70924;SDS011;58577;52.410;13.242;2022-08-05T09:16:15;9.77;;;5.47;;
70924;SDS011;58577;52.410;13.242;2022-08-05T09:19:01;9.70;;;4.97;;
70924;SDS011;58577;52.410;13.242;2022-08-05T09:21:47;8.88;;;5.05;;
70924;SDS011;58577;52.410;13.242;2022-08-05T09:24:34;11.77;;;5.68;;
70924;SDS011;58577;52.410;13.242;2022-08-05T09:27:29;13.57;;;5.97;;
70924;SDS011;58577;52.410;13.242;2022-08-05T09:30:19;12.68;;;6.15;;
70924;SDS011;58577;52.410;13.242;2022-08-05T09:33:05;17.52;;;7.95;;
70924;SDS011;58577;52.410;13.242;2022-08-05T09:36:02;13.45;;;6.80;;
70924;SDS011;58577;52.410;13.242;2022-08-05T09:39:10;14.18;;;7.57;;
70924;SDS011;58577;52.410;13.242;2022-08-05T09:41:57;11.27;;;6.60;;
70924;SDS011;58577;52.410;13.242;2022-08-05T09:44:48;19.40;;;9.65;;
70924;SDS011;58577;52.410;13.242;2022-08-05T09:47:38;17.88;;;8.35;;
70924;SDS011;58577;52.410;13.242;2022-08-05T09:50:35;14.65;;;7.25;;
70924;SDS011;58577;52.410;13.242;2022-08-05T09:53:21;14.32;;;7.30;;
70924;SDS011;58577;52.410;13.242;2022-08-05T09:56:08;13.30;;;6.25;;
70924;SDS011;58577;52.410;13.242;2022-08-05T09:59:00;12.93;;;6.55;;
70924;SDS011;58577;52.410;13.242;2022-08-05T10:01:51;12.57;;;6.40;;
70924;SDS011;58577;52.410;13.242;2022-08-05T10:04:37;12.82;;;6.63;;
70924;SDS011;58577;52.410;13.242;2022-08-05T10:07:23;10.18;;;5.38;;
70924;SDS011;58577;52.410;13.242;2022-08-05T10:13:37;9.30;;;5.20;;
70924;SDS011;58577;52.410;13.242;2022-08-05T10:16:28;9.27;;;5.47;;
70924;SDS011;58577;52.410;13.242;2022-08-05T10:19:18;9.90;;;5.40;;
70924;SDS011;58577;52.410;13.242;2022-08-05T10:22:06;8.70;;;5.03;;
70924;SDS011;58577;52.410;13.242;2022-08-05T10:24:52;8.95;;;5.00;;
70924;SDS011;58577;52.410;13.242;2022-08-05T10:27:38;10.80;;;5.60;;
70924;SDS011;58577;52.410;13.242;2022-08-05T10:30:25;10.70;;;5.57;;
70924;SDS011;58577;52.410;13.242;2022-08-05T10:33:11;12.63;;;6.43;;
70924;SDS011;58577;52.410;13.242;2022-08-05T10:35:58;10.27;;;6.55;;
70924;SDS011;58577;52.410;13.242;2022-08-05T10:38:45;9.93;;;6.50;;
70924;SDS011;58577;52.410;13.242;2022-08-05T10:41:34;12.47;;;6.57;;
70924;SDS011;58577;52.410;13.242;2022-08-05T10:44:28;10.68;;;6.28;;
70924;SDS011;58577;52.410;13.242;2022-08-05T10:47:16;11.00;;;7.00;;
70924;SDS011;58577;52.410;13.242;2022-08-05T10:50:06;10.98;;;6.88;;
70924;SDS011;58577;52.410;13.242;2022-08-05T10:52:57;13.85;;;7.20;;
70924;SDS011;58577;52.410;13.242;2022-08-05T10:56:00;11.82;;;8.02;;
70924;SDS011;58577;52.410;13.242;2022-08-05T11:01:40;12.02;;;7.45;;
70924;SDS011;58577;52.410;13.242;2022-08-05T11:04:28;15.38;;;8.73;;
70924;SDS011;58577;52.410;13.242;2022-08-05T11:07:14;13.38;;;8.07;;
70924;SDS011;58577;52.410;13.242;2022-08-05T11:10:02;14.05;;;8.15;;
70924;SDS011;58577;52.410;13.242;2022-08-05T11:12:49;12.77;;;7.32;;
70924;SDS011;58577;52.410;13.242;2022-08-05T11:15:36;9.05;;;5.68;;
70924;SDS011;58577;52.410;13.242;2022-08-05T11:18:30;9.45;;;5.28;;
70924;SDS011;58577;52.410;13.242;2022-08-05T11:21:30;10.20;;;5.07;;
70924;SDS011;58577;52.410;13.242;2022-08-05T11:24:17;7.93;;;4.77;;
70924;SDS011;58577;52.410;13.242;2022-08-05T11:27:27;6.50;;;3.90;;
70924;SDS011;58577;52.410;13.242;2022-08-05T11:30:14;8.82;;;3.83;;
70924;SDS011;58577;52.410;13.242;2022-08-05T11:33:23;6.65;;;3.70;;
70924;SDS011;58577;52.410;13.242;2022-08-05T11:36:40;4.55;;;3.75;;
70924;SDS011;58577;52.410;13.242;2022-08-05T11:39:50;17.45;;;12.13;;
70924;SDS011;58577;52.410;13.242;2022-08-05T11:42:37;5.28;;;4.20;;
70924;SDS011;58577;52.410;13.242;2022-08-05T11:45:26;4.95;;;3.63;;
70924;SDS011;58577;52.410;13.242;2022-08-05T11:48:12;5.03;;;3.80;;
70924;SDS011;58577;52.410;13.242;2022-08-05T11:50:58;4.60;;;3.63;;
70924;SDS011;58577;52.410;13.242;2022-08-05T11:53:45;7.72;;;4.10;;
70924;SDS011;58577;52.410;13.242;2022-08-05T11:56:48;4.65;;;3.75;;
70924;SDS011;58577;52.410;13.242;2022-08-05T11:59:35;6.63;;;3.90;;
70924;SDS011;58577;52.410;13.242;2022-08-05T12:02:25;5.13;;;3.92;;
70924;SDS011;58577;52.410;13.242;2022-08-05T12:05:23;4.78;;;3.65;;
70924;SDS011;58577;52.410;13.242;2022-08-05T12:08:11;4.10;;;3.53;;
70924;SDS011;58577;52.410;13.242;2022-08-05T12:10:57;4.47;;;3.55;;
70924;SDS011;58577;52.410;13.242;2022-08-05T12:14:01;4.15;;;3.65;;
70924;SDS011;58577;52.410;13.242;2022-08-05T12:16:48;3.88;;;3.55;;
70924;SDS011;58577;52.410;13.242;2022-08-05T12:19:39;3.88;;;3.40;;
70924;SDS011;58577;52.410;13.242;2022-08-05T12:22:27;6.35;;;3.33;;
70924;SDS011;58577;52.410;13.242;2022-08-05T12:25:14;4.25;;;3.53;;
70924;SDS011;58577;52.410;13.242;2022-08-05T12:28:00;3.67;;;3.38;;
70924;SDS011;58577;52.410;13.242;2022-08-05T12:30:45;5.70;;;3.47;;
70924;SDS011;58577;52.410;13.242;2022-08-05T12:33:34;7.57;;;4.15;;
70924;SDS011;58577;52.410;13.242;2022-08-05T12:36:20;4.38;;;3.72;;
70924;SDS011;58577;52.410;13.242;2022-08-05T12:39:06;4.07;;;3.67;;
70924;SDS011;58577;52.410;13.242;2022-08-05T12:41:59;3.95;;;3.33;;
70924;SDS011;58577;52.410;13.242;2022-08-05T12:44:45;4.85;;;3.33;;
70924;SDS011;58577;52.410;13.242;2022-08-05T12:47:31;4.68;;;3.75;;
70924;SDS011;58577;52.410;13.242;2022-08-05T12:50:17;4.65;;;3.63;;
70924;SDS011;58577;52.410;13.242;2022-08-05T12:53:03;6.45;;;3.53;;
70924;SDS011;58577;52.410;13.242;2022-08-05T12:55:49;5.38;;;3.85;;
70924;SDS011;58577;52.410;13.242;2022-08-05T12:58:35;7.13;;;3.90;;
70924;SDS011;58577;52.410;13.242;2022-08-05T13:01:21;6.35;;;4.32;;
70924;SDS011;58577;52.410;13.242;2022-08-05T13:04:08;5.32;;;4.00;;
70924;SDS011;58577;52.410;13.242;2022-08-05T13:06:58;6.70;;;3.92;;
70924;SDS011;58577;52.410;13.242;2022-08-05T13:09:49;5.88;;;4.05;;
70924;SDS011;58577;52.410;13.242;2022-08-05T13:12:41;5.00;;;3.92;;
70924;SDS011;58577;52.410;13.242;2022-08-05T13:15:29;6.40;;;3.75;;
70924;SDS011;58577;52.410;13.242;2022-08-05T13:18:19;5.15;;;4.20;;
70924;SDS011;58577;52.410;13.242;2022-08-05T13:21:05;5.85;;;4.25;;
70924;SDS011;58577;52.410;13.242;2022-08-05T13:23:52;4.07;;;3.67;;
70924;SDS011;58577;52.410;13.242;2022-08-05T13:26:38;4.65;;;4.07;;
70924;SDS011;58577;52.410;13.242;2022-08-05T13:29:24;5.70;;;3.95;;
70924;SDS011;58577;52.410;13.242;2022-08-05T13:32:10;5.05;;;3.83;;
70924;SDS011;58577;52.410;13.242;2022-08-05T13:34:56;6.47;;;4.00;;
70924;SDS011;58577;52.410;13.242;2022-08-05T13:37:42;4.82;;;3.65;;
70924;SDS011;58577;52.410;13.242;2022-08-05T13:40:29;6.22;;;3.83;;
70924;SDS011;58577;52.410;13.242;2022-08-05T13:43:14;5.18;;;3.58;;
70924;SDS011;58577;52.410;13.242;2022-08-05T13:46:02;4.15;;;3.75;;
70924;SDS011;58577;52.410;13.242;2022-08-05T13:48:48;6.60;;;3.80;;
70924;SDS011;58577;52.410;13.242;2022-08-05T13:51:34;5.13;;;3.90;;
70924;SDS011;58577;52.410;13.242;2022-08-05T13:54:19;4.63;;;4.05;;
70924;SDS011;58577;52.410;13.242;2022-08-05T13:57:06;6.55;;;4.30;;
70924;SDS011;58577;52.410;13.242;2022-08-05T13:59:53;6.85;;;4.30;;
70924;SDS011;58577;52.410;13.242;2022-08-05T14:02:38;6.57;;;3.58;;
70924;SDS011;58577;52.410;13.242;2022-08-05T14:05:24;4.35;;;3.83;;
70924;SDS011;58577;52.410;13.242;2022-08-05T14:08:10;5.60;;;4.43;;
70924;SDS011;58577;52.410;13.242;2022-08-05T14:10:56;6.53;;;3.85;;
70924;SDS011;58577;52.410;13.242;2022-08-05T14:13:42;6.50;;;4.10;;
70924;SDS011;58577;52.410;13.242;2022-08-05T14:16:28;4.55;;;3.80;;
70924;SDS011;58577;52.410;13.242;2022-08-05T14:19:14;6.03;;;3.75;;
70924;SDS011;58577;52.410;13.242;2022-08-05T14:22:00;5.05;;;3.85;;
70924;SDS011;58577;52.410;13.242;2022-08-05T14:24:45;5.78;;;3.92;;
70924;SDS011;58577;52.410;13.242;2022-08-05T14:27:32;5.13;;;4.05;;
70924;SDS011;58577;52.410;13.242;2022-08-05T14:30:18;5.65;;;4.05;;
70924;SDS011;58577;52.410;13.242;2022-08-05T14:33:04;7.22;;;4.60;;
70924;SDS011;58577;52.410;13.242;2022-08-05T14:35:50;7.68;;;4.53;;
70924;SDS011;58577;52.410;13.242;2022-08-05T14:38:36;5.85;;;4.18;;
70924;SDS011;58577;52.410;13.242;2022-08-05T14:41:22;7.30;;;4.35;;
70924;SDS011;58577;52.410;13.242;2022-08-05T14:44:08;6.55;;;4.47;;
70924;SDS011;58577;52.410;13.242;2022-08-05T14:46:54;6.45;;;4.38;;
70924;SDS011;58577;52.410;13.242;2022-08-05T14:49:40;6.07;;;4.53;;
70924;SDS011;58577;52.410;13.242;2022-08-05T14:52:26;6.38;;;4.60;;
70924;SDS011;58577;52.410;13.242;2022-08-05T14:55:11;5.22;;;4.38;;
70924;SDS011;58577;52.410;13.242;2022-08-05T14:57:57;7.53;;;4.40;;
70924;SDS011;58577;52.410;13.242;2022-08-05T15:00:43;5.60;;;4.45;;
70924;SDS011;58577;52.410;13.242;2022-08-05T15:03:29;6.32;;;4.97;;
70924;SDS011;58577;52.410;13.242;2022-08-05T15:06:16;7.80;;;5.05;;
70924;SDS011;58577;52.410;13.242;2022-08-05T15:09:02;7.18;;;5.20;;
70924;SDS011;58577;52.410;13.242;2022-08-05T15:11:48;6.22;;;5.07;;
70924;SDS011;58577;52.410;13.242;2022-08-05T15:14:35;6.55;;;5.30;;
70924;SDS011;58577;52.410;13.242;2022-08-05T15:17:21;7.22;;;5.20;;
70924;SDS011;58577;52.410;13.242;2022-08-05T15:20:07;6.28;;;4.93;;
70924;SDS011;58577;52.410;13.242;2022-08-05T15:22:54;9.15;;;5.75;;
70924;SDS011;58577;52.410;13.242;2022-08-05T15:25:40;8.05;;;5.63;;
70924;SDS011;58577;52.410;13.242;2022-08-05T15:28:26;7.05;;;5.45;;
70924;SDS011;58577;52.410;13.242;2022-08-05T15:31:12;10.60;;;7.18;;
70924;SDS011;58577;52.410;13.242;2022-08-05T15:33:58;7.25;;;4.88;;
70924;SDS011;58577;52.410;13.242;2022-08-05T15:36:44;6.53;;;5.00;;
70924;SDS011;58577;52.410;13.242;2022-08-05T15:39:29;8.80;;;5.00;;
70924;SDS011;58577;52.410;13.242;2022-08-05T15:42:15;6.90;;;5.40;;
70924;SDS011;58577;52.410;13.242;2022-08-05T15:45:01;10.27;;;5.03;;
70924;SDS011;58577;52.410;13.242;2022-08-05T15:47:48;7.18;;;4.80;;
70924;SDS011;58577;52.410;13.242;2022-08-05T15:50:33;7.05;;;4.88;;
70924;SDS011;58577;52.410;13.242;2022-08-05T15:53:19;6.80;;;4.75;;
70924;SDS011;58577;52.410;13.242;2022-08-05T15:56:05;6.78;;;4.47;;
70924;SDS011;58577;52.410;13.242;2022-08-05T15:58:51;12.40;;;5.85;;
70924;SDS011;58577;52.410;13.242;2022-08-05T16:01:37;5.72;;;4.75;;
70924;SDS011;58577;52.410;13.242;2022-08-05T16:04:23;7.80;;;5.00;;
70924;SDS011;58577;52.410;13.242;2022-08-05T16:07:09;6.28;;;4.57;;
70924;SDS011;58577;52.410;13.242;2022-08-05T16:09:55;9.32;;;4.70;;
70924;SDS011;58577;52.410;13.242;2022-08-05T16:12:42;8.93;;;5.20;;
70924;SDS011;58577;52.410;13.242;2022-08-05T16:15:27;6.82;;;4.55;;
70924;SDS011;58577;52.410;13.242;2022-08-05T16:18:13;6.35;;;4.63;;
70924;SDS011;58577;52.410;13.242;2022-08-05T16:20:59;8.63;;;5.20;;
70924;SDS011;58577;52.410;13.242;2022-08-05T16:23:46;7.40;;;4.93;;
70924;SDS011;58577;52.410;13.242;2022-08-05T16:26:32;7.97;;;5.05;;
70924;SDS011;58577;52.410;13.242;2022-08-05T16:29:18;8.02;;;4.90;;
70924;SDS011;58577;52.410;13.242;2022-08-05T16:32:05;8.25;;;5.35;;
70924;SDS011;58577;52.410;13.242;2022-08-05T16:34:51;10.80;;;6.47;;
70924;SDS011;58577;52.410;13.242;2022-08-05T16:37:37;8.63;;;5.95;;
70924;SDS011;58577;52.410;13.242;2022-08-05T16:40:24;13.07;;;5.97;;
70924;SDS011;58577;52.410;13.242;2022-08-05T16:43:10;9.48;;;5.45;;
70924;SDS011;58577;52.410;13.242;2022-08-05T16:45:58;7.93;;;4.90;;
70924;SDS011;58577;52.410;13.242;2022-08-05T16:48:44;7.65;;;4.82;;
70924;SDS011;58577;52.410;13.242;2022-08-05T16:51:30;9.68;;;5.50;;
70924;SDS011;58577;52.410;13.242;2022-08-05T16:54:16;8.18;;;4.88;;